createdAt,value
2018-05-14T00:01:10.451Z,12.70
2018-05-14T00:03:37.130Z,12.70
2018-05-14T00:06:04.532Z,12.60
2018-05-14T00:08:31.186Z,12.60
2018-05-14T00:10:57.884Z,12.60
2018-05-14T00:13:24.547Z,12.50
2018-05-14T00:15:51.290Z,12.50
2018-05-14T00:18:17.948Z,12.40
2018-05-14T00:20:44.594Z,12.40
2018-05-14T00:23:11.267Z,12.40
2018-05-14T00:25:37.953Z,12.40
2018-05-14T00:28:04.638Z,12.30
2018-05-14T00:30:32.068Z,12.30
2018-05-14T00:33:00.464Z,12.30
2018-05-14T00:35:27.204Z,12.30
2018-05-14T00:37:54.688Z,12.40
2018-05-14T00:40:21.495Z,12.40
2018-05-14T00:42:48.884Z,12.50
2018-05-14T00:45:15.595Z,12.50
2018-05-14T00:47:43.018Z,12.60
2018-05-14T00:50:09.823Z,12.60
2018-05-14T00:52:36.664Z,12.70
2018-05-14T00:55:15.386Z,12.70
2018-05-14T00:57:42.056Z,12.80
2018-05-14T01:00:08.828Z,12.80
2018-05-14T01:02:36.321Z,12.90
2018-05-14T01:05:03.136Z,12.90
2018-05-14T01:07:30.553Z,13.00
2018-05-14T01:09:57.267Z,13.00
2018-05-14T01:12:23.937Z,13.00
2018-05-14T01:14:50.635Z,13.10
2018-05-14T01:17:17.507Z,13.10
2018-05-14T01:19:44.217Z,13.10
2018-05-14T01:22:10.886Z,13.10
2018-05-14T01:24:37.703Z,13.10
2018-05-14T01:27:04.417Z,13.20
2018-05-14T01:29:32.224Z,13.20
2018-05-14T01:31:58.845Z,13.20
2018-05-14T01:34:25.504Z,13.20
2018-05-14T01:36:52.184Z,13.20
2018-05-14T01:39:18.836Z,13.20
2018-05-14T01:41:46.230Z,13.20
2018-05-14T01:44:12.904Z,13.20
2018-05-14T01:46:39.554Z,13.20
2018-05-14T01:49:07.110Z,13.30
2018-05-14T01:51:33.954Z,13.20
2018-05-14T01:54:01.354Z,13.20
2018-05-14T01:56:28.025Z,13.20
2018-05-14T01:58:54.654Z,13.20
2018-05-14T02:01:21.391Z,13.20
2018-05-14T02:03:48.071Z,13.10
2018-05-14T02:06:15.487Z,13.00
2018-05-14T02:08:42.188Z,12.90
2018-05-14T02:11:08.886Z,12.90
2018-05-14T02:13:35.632Z,12.90
2018-05-14T02:16:02.332Z,13.00
2018-05-14T02:18:28.922Z,12.90
2018-05-14T02:20:56.325Z,12.90
2018-05-14T02:23:23.016Z,12.90
2018-05-14T02:25:49.663Z,12.80
2018-05-14T02:28:17.097Z,12.70
2018-05-14T02:30:43.704Z,12.70
2018-05-14T02:33:10.335Z,12.70
2018-05-14T02:35:36.986Z,12.70
2018-05-14T02:38:03.614Z,12.60
2018-05-14T02:40:30.336Z,12.50
2018-05-14T02:42:56.945Z,12.40
2018-05-14T02:45:24.384Z,12.10
2018-05-14T02:47:51.873Z,12.00
2018-05-14T02:50:18.510Z,12.00
2018-05-14T02:52:45.189Z,12.00
2018-05-14T02:55:11.999Z,12.00
2018-05-14T02:57:38.705Z,11.90
2018-05-14T03:00:06.154Z,11.80
2018-05-14T03:02:32.822Z,11.80
2018-05-14T03:04:59.572Z,11.80
2018-05-14T03:07:26.190Z,11.70
2018-05-14T03:09:53.627Z,11.60
2018-05-14T03:12:20.736Z,11.50
2018-05-14T03:14:47.416Z,11.50
2018-05-14T03:17:15.029Z,11.40
2018-05-14T03:19:41.665Z,11.40
2018-05-14T03:22:08.298Z,11.40
2018-05-14T03:24:34.958Z,11.40
2018-05-14T03:27:01.620Z,11.30
2018-05-14T03:29:28.279Z,11.30
2018-05-14T03:31:54.898Z,11.20
2018-05-14T03:34:22.303Z,11.20
2018-05-14T03:36:48.940Z,11.20
2018-05-14T03:39:15.571Z,11.10
2018-05-14T03:41:42.262Z,11.10
2018-05-14T03:44:08.899Z,11.10
2018-05-14T03:46:35.589Z,11.10
2018-05-14T03:49:02.266Z,11.10
2018-05-14T03:51:28.941Z,11.00
2018-05-14T03:53:55.609Z,11.00
2018-05-14T03:56:22.280Z,11.00
2018-05-14T03:59:01.006Z,11.00
2018-05-14T04:01:39.913Z,11.00
2018-05-14T04:04:19.553Z,11.00
2018-05-14T04:06:47.111Z,11.00
2018-05-14T04:09:13.822Z,11.00
2018-05-14T04:11:41.387Z,11.00
2018-05-14T04:14:08.056Z,11.00
2018-05-14T04:16:34.740Z,11.00
2018-05-14T04:19:01.854Z,11.00
2018-05-14T04:21:28.496Z,11.00
2018-05-14T04:23:55.133Z,11.00
2018-05-14T04:26:21.818Z,11.00
2018-05-14T04:28:48.415Z,11.10
2018-05-14T04:31:15.821Z,11.10
2018-05-14T04:33:42.515Z,11.10
2018-05-14T04:36:09.907Z,11.20
2018-05-14T04:38:36.530Z,11.20
2018-05-14T04:41:03.608Z,11.20
2018-05-14T04:43:31.735Z,11.30
2018-05-14T04:45:59.125Z,11.40
2018-05-14T04:48:25.833Z,11.40
2018-05-14T04:50:53.383Z,11.50
2018-05-14T04:53:20.826Z,11.60
2018-05-14T04:55:47.443Z,11.60
2018-05-14T04:58:14.274Z,11.70
2018-05-14T05:00:40.992Z,11.70
2018-05-14T05:03:07.637Z,11.80
2018-05-14T05:05:34.488Z,11.90
2018-05-14T05:08:01.133Z,12.10
2018-05-14T05:10:27.821Z,12.20
2018-05-14T05:12:54.484Z,12.40
2018-05-14T05:15:21.330Z,12.70
2018-05-14T05:17:47.977Z,13.10
2018-05-14T05:20:14.609Z,13.50
2018-05-14T05:22:41.281Z,14.00
2018-05-14T05:25:07.887Z,14.40
2018-05-14T05:27:34.819Z,14.70
2018-05-14T05:30:01.563Z,15.20
2018-05-14T05:32:28.210Z,15.70
2018-05-14T05:34:54.900Z,16.10
2018-05-14T05:37:21.590Z,16.50
2018-05-14T05:39:48.315Z,16.80
2018-05-14T05:42:14.947Z,17.00
2018-05-14T05:44:41.694Z,17.20
2018-05-14T05:47:08.362Z,17.40
2018-05-14T05:49:35.184Z,17.50
2018-05-14T05:52:01.885Z,17.80
2018-05-14T05:54:28.541Z,18.20
2018-05-14T05:56:55.226Z,18.50
2018-05-14T05:59:21.860Z,18.80
2018-05-14T06:01:48.670Z,19.10
2018-05-14T06:04:15.282Z,19.30
2018-05-14T06:06:42.670Z,19.20
2018-05-14T06:09:09.399Z,19.20
2018-05-14T06:11:36.465Z,19.40
2018-05-14T06:14:03.359Z,19.60
2018-05-14T06:16:29.988Z,19.60
2018-05-14T06:18:56.636Z,19.70
2018-05-14T06:21:24.064Z,19.80
2018-05-14T06:23:50.695Z,19.80
2018-05-14T06:26:17.312Z,19.90
2018-05-14T06:28:43.969Z,19.90
2018-05-14T06:31:10.796Z,20.00
2018-05-14T06:33:37.441Z,20.30
2018-05-14T06:36:04.120Z,20.40
2018-05-14T06:38:30.888Z,20.70
2018-05-14T06:40:57.516Z,20.80
2018-05-14T06:43:24.949Z,21.10
2018-05-14T06:45:51.577Z,21.10
2018-05-14T06:48:18.239Z,21.10
2018-05-14T06:50:44.914Z,21.40
2018-05-14T06:53:11.565Z,21.50
2018-05-14T06:55:38.264Z,21.60
2018-05-14T06:58:04.903Z,21.40
2018-05-14T07:00:31.512Z,21.60
2018-05-14T07:02:58.146Z,21.70
2018-05-14T07:05:24.802Z,22.00
2018-05-14T07:07:52.191Z,22.60
2018-05-14T07:10:19.035Z,22.50
2018-05-14T07:12:45.733Z,22.50
2018-05-14T07:15:13.103Z,22.40
2018-05-14T07:17:40.199Z,22.40
2018-05-14T07:20:06.849Z,22.20
2018-05-14T07:22:33.504Z,22.10
2018-05-14T07:25:00.156Z,22.30
2018-05-14T07:27:27.534Z,23.00
2018-05-14T07:29:54.705Z,22.90
2018-05-14T07:32:21.322Z,22.80
2018-05-14T07:34:47.955Z,22.80
2018-05-14T07:37:14.625Z,22.90
2018-05-14T07:39:41.315Z,23.20
2018-05-14T07:42:08.793Z,23.60
2018-05-14T07:44:35.442Z,23.50
2018-05-14T07:47:02.111Z,23.60
2018-05-14T07:49:28.738Z,23.70
2018-05-14T07:51:55.378Z,23.70
2018-05-14T07:54:22.089Z,23.70
2018-05-14T07:56:48.751Z,23.90
2018-05-14T07:59:15.531Z,23.90
2018-05-14T08:01:42.989Z,24.00
2018-05-14T08:04:10.355Z,24.00
2018-05-14T08:06:36.994Z,24.00
2018-05-14T08:09:03.715Z,24.00
2018-05-14T08:11:30.413Z,24.10
2018-05-14T08:13:57.116Z,24.20
2018-05-14T08:16:23.881Z,24.20
2018-05-14T08:18:50.611Z,24.40
2018-05-14T08:21:17.251Z,24.70
2018-05-14T08:23:43.932Z,24.60
2018-05-14T08:26:10.590Z,24.80
2018-05-14T08:28:38.186Z,25.20
2018-05-14T08:31:04.842Z,25.10
2018-05-14T08:33:31.521Z,25.30
2018-05-14T08:35:58.226Z,25.30
2018-05-14T08:38:24.912Z,25.50
2018-05-14T08:40:51.595Z,25.80
2018-05-14T08:43:18.241Z,25.50
2018-05-14T08:45:44.891Z,25.60
2018-05-14T08:48:11.513Z,25.90
2018-05-14T08:50:38.196Z,26.00
2018-05-14T08:53:05.604Z,26.30
2018-05-14T08:55:32.281Z,26.20
2018-05-14T08:57:59.687Z,26.40
2018-05-14T09:00:26.347Z,26.40
2018-05-14T09:02:53.032Z,26.50
2018-05-14T09:05:20.555Z,26.40
2018-05-14T09:07:47.136Z,26.40
2018-05-14T09:10:13.886Z,26.60
2018-05-14T09:12:40.689Z,26.50
2018-05-14T09:15:07.321Z,26.40
2018-05-14T09:17:35.466Z,26.50
2018-05-14T09:20:02.147Z,26.50
2018-05-14T09:22:29.567Z,26.80
2018-05-14T09:24:56.197Z,26.90
2018-05-14T09:27:22.877Z,27.10
2018-05-14T09:29:49.502Z,27.30
2018-05-14T09:32:16.166Z,27.40
2018-05-14T09:34:43.615Z,27.60
2018-05-14T09:37:11.013Z,27.70
2018-05-14T09:39:37.701Z,27.60
2018-05-14T09:42:05.165Z,27.70
2018-05-14T09:44:32.603Z,28.00
2018-05-14T09:46:59.238Z,28.00
2018-05-14T09:49:25.877Z,28.10
2018-05-14T09:51:52.533Z,28.20
2018-05-14T09:54:19.474Z,28.30
2018-05-14T09:56:46.898Z,28.40
2018-05-14T09:59:13.553Z,28.40
2018-05-14T10:01:40.356Z,28.50
2018-05-14T10:04:06.995Z,28.70
2018-05-14T10:06:33.651Z,28.70
2018-05-14T10:09:00.302Z,28.70
2018-05-14T10:11:26.969Z,28.90
2018-05-14T10:13:53.631Z,29.10
2018-05-14T10:16:20.332Z,29.10
2018-05-14T10:18:47.171Z,29.00
2018-05-14T10:21:13.851Z,28.90
2018-05-14T10:23:40.561Z,29.00
2018-05-14T10:26:08.045Z,29.00
2018-05-14T10:28:34.641Z,29.00
2018-05-14T10:31:01.276Z,29.00
2018-05-14T10:33:27.928Z,29.10
2018-05-14T10:35:54.803Z,28.80
2018-05-14T10:38:22.356Z,28.90
2018-05-14T10:40:49.842Z,29.10
2018-05-14T10:43:17.244Z,29.20
2018-05-14T10:45:44.724Z,29.10
2018-05-14T10:48:11.361Z,29.10
2018-05-14T10:50:38.006Z,28.90
2018-05-14T10:53:04.666Z,28.90
2018-05-14T10:55:31.329Z,29.00
2018-05-14T10:57:59.510Z,28.90
2018-05-14T11:00:26.134Z,28.90
2018-05-14T11:02:52.824Z,28.90
2018-05-14T11:05:19.487Z,29.10
2018-05-14T11:07:46.166Z,28.90
2018-05-14T11:10:12.834Z,29.00
2018-05-14T11:12:39.919Z,29.10
2018-05-14T11:15:06.596Z,29.30
2018-05-14T11:17:33.223Z,29.20
2018-05-14T11:20:00.013Z,29.30
2018-05-14T11:22:26.655Z,29.40
2018-05-14T11:24:53.523Z,29.40
2018-05-14T11:27:20.338Z,29.20
2018-05-14T11:29:46.994Z,29.20
2018-05-14T11:32:13.842Z,29.20
2018-05-14T11:34:40.517Z,29.20
2018-05-14T11:37:07.187Z,29.00
2018-05-14T11:39:34.753Z,29.50
2018-05-14T11:42:01.418Z,29.50
2018-05-14T11:44:28.045Z,29.60
2018-05-14T11:46:55.093Z,29.60
2018-05-14T11:49:21.713Z,29.40
2018-05-14T11:51:48.359Z,29.60
2018-05-14T11:54:15.089Z,29.70
2018-05-14T11:56:41.844Z,29.40
2018-05-14T11:59:09.166Z,29.50
2018-05-14T12:01:36.587Z,29.60
2018-05-14T12:04:03.215Z,29.60
2018-05-14T12:06:30.037Z,29.50
2018-05-14T12:08:56.672Z,29.70
2018-05-14T12:11:23.303Z,29.80
2018-05-14T12:13:49.976Z,29.80
2018-05-14T12:16:16.645Z,29.60
2018-05-14T12:18:44.029Z,29.70
2018-05-14T12:21:10.732Z,29.70
2018-05-14T12:23:38.170Z,29.60
2018-05-14T12:26:04.856Z,29.60
2018-05-14T12:28:31.502Z,29.70
2018-05-14T12:30:58.168Z,29.70
2018-05-14T12:33:24.832Z,29.70
2018-05-14T12:35:51.641Z,29.70
2018-05-14T12:38:18.263Z,29.70
2018-05-14T12:40:52.568Z,29.80
2018-05-14T12:43:19.203Z,29.80
2018-05-14T12:45:45.833Z,29.90
2018-05-14T12:48:12.507Z,29.90
2018-05-14T12:50:39.286Z,30.00
2018-05-14T12:53:07.088Z,29.90
2018-05-14T12:55:34.699Z,29.70
2018-05-14T12:58:01.717Z,29.70
2018-05-14T13:00:28.393Z,29.70
2018-05-14T13:02:55.022Z,29.70
2018-05-14T13:05:21.707Z,29.70
2018-05-14T13:07:48.400Z,29.70
2018-05-14T13:10:15.051Z,29.80
2018-05-14T13:12:41.754Z,29.60
2018-05-14T13:15:08.381Z,29.60
2018-05-14T13:17:35.243Z,29.50
2018-05-14T13:20:02.732Z,28.80
2018-05-14T13:22:30.099Z,28.60
2018-05-14T13:24:56.801Z,28.60
2018-05-14T13:27:23.599Z,28.60
2018-05-14T13:29:50.307Z,28.80
2018-05-14T13:32:17.669Z,28.90
2018-05-14T13:34:45.090Z,28.80
2018-05-14T13:37:12.219Z,28.80
2018-05-14T13:39:38.857Z,28.90
2018-05-14T13:42:05.645Z,29.00
2018-05-14T13:44:32.483Z,29.20
2018-05-14T13:46:59.082Z,29.30
2018-05-14T13:49:26.266Z,29.30
2018-05-14T13:51:52.899Z,29.40
2018-05-14T13:54:19.543Z,29.40
2018-05-14T13:56:47.168Z,29.40
2018-05-14T13:59:13.851Z,29.40
2018-05-14T14:01:41.226Z,29.40
2018-05-14T14:04:08.608Z,29.40
2018-05-14T14:06:35.285Z,29.40
2018-05-14T14:09:01.976Z,29.50
2018-05-14T14:11:30.220Z,29.40
2018-05-14T14:13:56.851Z,29.40
2018-05-14T14:16:24.298Z,29.30
2018-05-14T14:18:51.996Z,29.20
2018-05-14T14:21:18.625Z,29.20
2018-05-14T14:23:46.223Z,29.10
2018-05-14T14:26:12.706Z,29.10
2018-05-14T14:28:40.083Z,29.00
2018-05-14T14:31:06.895Z,28.90
2018-05-14T14:33:34.282Z,29.20
2018-05-14T14:36:01.006Z,29.20
2018-05-14T14:38:28.353Z,29.50
2018-05-14T14:40:55.027Z,29.40
2018-05-14T14:43:21.658Z,29.50
2018-05-14T14:45:48.312Z,29.60
2018-05-14T14:48:14.929Z,29.60
2018-05-14T14:50:41.866Z,29.50
2018-05-14T14:53:08.480Z,29.40
2018-05-14T14:55:35.928Z,29.10
2018-05-14T14:58:03.365Z,28.80
2018-05-14T15:00:30.185Z,28.70
2018-05-14T15:02:56.801Z,28.40
2018-05-14T15:05:23.419Z,28.20
2018-05-14T15:07:50.128Z,28.30
2018-05-14T15:10:16.781Z,28.40
2018-05-14T15:12:43.441Z,28.50
2018-05-14T15:15:10.113Z,28.60
2018-05-14T15:17:36.791Z,28.50
2018-05-14T15:20:04.277Z,28.10
2018-05-14T15:22:31.654Z,28.10
2018-05-14T15:24:58.709Z,28.10
2018-05-14T15:27:25.332Z,27.90
2018-05-14T15:29:52.070Z,27.90
2018-05-14T15:32:19.005Z,27.70
2018-05-14T15:34:45.645Z,27.60
2018-05-14T15:37:12.290Z,27.60
2018-05-14T15:39:39.354Z,27.50
2018-05-14T15:42:05.991Z,27.60
2018-05-14T15:44:32.625Z,27.60
2018-05-14T15:46:59.296Z,27.40
2018-05-14T15:49:25.962Z,27.30
2018-05-14T15:51:53.158Z,27.50
2018-05-14T15:54:19.806Z,27.50
2018-05-14T15:56:46.454Z,27.60
2018-05-14T15:59:13.149Z,27.60
2018-05-14T16:01:39.856Z,27.50
2018-05-14T16:04:07.312Z,27.50
2018-05-14T16:06:33.958Z,27.50
2018-05-14T16:09:01.347Z,27.50
2018-05-14T16:11:28.181Z,27.50
2018-05-14T16:13:54.838Z,27.40
2018-05-14T16:16:21.558Z,27.30
2018-05-14T16:18:48.193Z,27.20
2018-05-14T16:21:14.846Z,27.20
2018-05-14T16:23:41.497Z,27.10
2018-05-14T16:26:08.322Z,27.10
2018-05-14T16:28:35.049Z,26.90
2018-05-14T16:31:01.696Z,26.80
2018-05-14T16:33:28.387Z,26.80
2018-05-14T16:35:56.526Z,26.80
2018-05-14T16:38:23.184Z,26.80
2018-05-14T16:40:51.410Z,26.50
2018-05-14T16:43:18.118Z,26.50
2018-05-14T16:45:45.497Z,26.40
2018-05-14T16:48:12.155Z,26.40
2018-05-14T16:50:39.218Z,26.30
2018-05-14T16:53:05.890Z,26.30
2018-05-14T16:55:32.506Z,26.40
2018-05-14T16:57:59.204Z,26.30
2018-05-14T17:00:25.969Z,26.20
2018-05-14T17:02:52.630Z,26.10
2018-05-14T17:05:20.028Z,25.80
2018-05-14T17:07:47.040Z,25.80
2018-05-14T17:10:13.685Z,25.70
2018-05-14T17:12:40.324Z,25.50
2018-05-14T17:15:07.817Z,25.30
2018-05-14T17:17:34.452Z,25.30
2018-05-14T17:20:01.203Z,25.20
2018-05-14T17:22:28.343Z,25.20
2018-05-14T17:24:55.021Z,25.10
2018-05-14T17:27:21.659Z,25.10
2018-05-14T17:29:48.330Z,25.00
2018-05-14T17:32:15.679Z,24.80
2018-05-14T17:34:43.835Z,24.70
2018-05-14T17:37:10.477Z,24.70
2018-05-14T17:39:37.493Z,24.60
2018-05-14T17:42:04.133Z,24.50
2018-05-14T17:44:30.787Z,24.40
2018-05-14T17:46:57.515Z,24.30
2018-05-14T17:49:24.148Z,24.30
2018-05-14T17:51:50.828Z,24.10
2018-05-14T17:54:18.219Z,23.90
2018-05-14T17:56:45.036Z,23.90
2018-05-14T17:59:11.768Z,23.80
2018-05-14T18:01:39.295Z,23.70
2018-05-14T18:04:06.004Z,23.70
2018-05-14T18:06:32.629Z,23.60
2018-05-14T18:08:59.338Z,23.50
2018-05-14T18:11:25.992Z,23.50
2018-05-14T18:13:53.380Z,23.20
2018-05-14T18:16:20.007Z,23.20
2018-05-14T18:18:46.648Z,23.10
2018-05-14T18:21:15.348Z,23.10
2018-05-14T18:23:46.935Z,23.00
2018-05-14T18:28:48.858Z,22.80
2018-05-14T18:31:23.886Z,22.70
2018-05-14T18:33:53.333Z,22.50
2018-05-14T18:36:20.138Z,22.50
2018-05-14T18:38:46.792Z,22.40
2018-05-14T18:41:13.471Z,22.30
2018-05-14T18:43:41.100Z,22.00
2018-05-14T18:46:07.777Z,22.00
2018-05-14T18:48:34.434Z,21.90
2018-05-14T18:51:01.873Z,21.60
2018-05-14T18:53:28.527Z,21.60
2018-05-14T18:55:55.906Z,21.40
2018-05-14T18:58:22.733Z,21.40
2018-05-14T19:00:49.516Z,21.30
2018-05-14T19:03:16.193Z,21.10
2018-05-14T19:05:43.679Z,20.90
2018-05-14T19:08:10.314Z,20.90
2018-05-14T19:10:43.193Z,20.80
2018-05-14T19:13:09.857Z,20.60
2018-05-14T19:15:42.632Z,20.50
2018-05-14T19:18:09.318Z,20.50
2018-05-14T19:20:35.986Z,20.40
2018-05-14T19:23:08.703Z,20.30
2018-05-14T19:25:35.356Z,20.20
2018-05-14T19:28:08.263Z,20.10
2018-05-14T19:30:34.868Z,20.00
2018-05-14T19:33:03.246Z,19.80
2018-05-14T19:35:38.149Z,19.80
2018-05-14T19:38:05.218Z,19.80
2018-05-14T19:40:37.920Z,19.70
2018-05-14T19:43:05.098Z,19.60
2018-05-14T19:45:32.581Z,19.40
2018-05-14T19:47:59.214Z,19.40
2018-05-14T19:50:26.047Z,19.40
2018-05-14T19:52:52.700Z,19.30
2018-05-14T19:55:19.439Z,19.20
2018-05-14T19:57:46.127Z,19.10
2018-05-14T20:00:12.849Z,18.90
2018-05-14T20:02:39.549Z,18.80
2018-05-14T20:05:06.213Z,18.70
2018-05-14T20:07:32.886Z,18.60
2018-05-14T20:09:59.574Z,18.50
2018-05-14T20:12:26.219Z,18.40
2018-05-14T20:14:52.873Z,18.30
2018-05-14T20:17:19.535Z,18.20
2018-05-14T20:19:46.225Z,18.20
2018-05-14T20:22:12.931Z,18.10
2018-05-14T20:24:40.324Z,17.90
2018-05-14T20:27:06.963Z,17.90
2018-05-14T20:29:33.635Z,17.80
2018-05-14T20:32:00.404Z,17.80
2018-05-14T20:34:27.809Z,17.60
2018-05-14T20:36:54.414Z,17.60
2018-05-14T20:39:21.831Z,17.40
2018-05-14T20:41:48.478Z,17.40
2018-05-14T20:44:15.539Z,17.40
2018-05-14T20:46:42.974Z,17.20
2018-05-14T20:49:09.661Z,17.20
2018-05-14T20:51:36.322Z,17.10
2018-05-14T20:54:03.008Z,17.10
2018-05-14T20:56:30.421Z,16.90
2018-05-14T20:58:57.099Z,16.90
2018-05-14T21:01:24.591Z,16.80
2018-05-14T21:03:51.400Z,16.80
2018-05-14T21:06:18.040Z,16.70
2018-05-14T21:08:45.445Z,16.60
2018-05-14T21:11:12.125Z,16.60
2018-05-14T21:13:38.952Z,16.60
2018-05-14T21:16:05.659Z,16.50
2018-05-14T21:18:32.330Z,16.40
2018-05-14T21:20:59.015Z,16.40
2018-05-14T21:23:25.694Z,16.30
2018-05-14T21:25:52.604Z,16.20
2018-05-14T21:28:19.265Z,16.10
2018-05-14T21:30:45.866Z,16.10
2018-05-14T21:33:12.545Z,16.00
2018-05-14T21:35:39.256Z,16.00
2018-05-14T21:38:05.954Z,15.90
2018-05-14T21:40:32.703Z,15.90
2018-05-14T21:43:00.073Z,15.80
2018-05-14T21:45:27.690Z,15.70
2018-05-14T21:47:54.315Z,15.80
2018-05-14T21:50:21.047Z,15.70
2018-05-14T21:52:47.788Z,15.60
2018-05-14T21:55:14.395Z,15.60
2018-05-14T21:57:41.041Z,15.50
2018-05-14T22:00:08.019Z,15.40
2018-05-14T22:02:35.323Z,15.30
2018-05-14T22:05:02.755Z,15.20
2018-05-14T22:07:29.838Z,15.20
2018-05-14T22:09:56.401Z,15.20
2018-05-14T22:12:23.045Z,15.10
2018-05-14T22:14:49.712Z,15.00
2018-05-14T22:17:16.468Z,14.90
2018-05-14T22:19:43.858Z,14.70
2018-05-14T22:22:10.592Z,14.70
2018-05-14T22:24:37.290Z,14.70
2018-05-14T22:27:03.914Z,14.40
2018-05-14T22:29:31.255Z,14.20
2018-05-14T22:31:57.879Z,14.10
2018-05-14T22:34:24.934Z,14.10
2018-05-14T22:36:51.744Z,14.00
2018-05-14T22:39:18.471Z,14.00
2018-05-14T22:41:45.886Z,13.80
2018-05-14T22:44:12.514Z,13.80
2018-05-14T22:46:39.192Z,13.70
2018-05-14T22:49:06.577Z,13.60
2018-05-14T22:51:33.208Z,13.60
2018-05-14T22:53:59.955Z,13.50
2018-05-14T22:56:26.966Z,13.40
2018-05-14T22:58:54.353Z,13.30
2018-05-14T23:01:21.006Z,13.20
2018-05-14T23:03:47.803Z,13.20
2018-05-14T23:06:15.260Z,13.10
2018-05-14T23:08:42.673Z,13.00
2018-05-14T23:11:10.168Z,13.00
2018-05-14T23:13:37.591Z,12.90
2018-05-14T23:16:04.254Z,12.90
2018-05-14T23:18:31.713Z,12.80
2018-05-14T23:20:58.365Z,12.80
2018-05-14T23:23:25.741Z,12.70
2018-05-14T23:25:52.404Z,12.60
2018-05-14T23:28:19.069Z,12.60
2018-05-14T23:30:45.727Z,12.60
2018-05-14T23:33:13.139Z,12.50
2018-05-14T23:35:39.799Z,12.50
2018-05-14T23:38:06.667Z,12.50
2018-05-14T23:40:34.038Z,12.40
2018-05-14T23:43:01.435Z,12.30
2018-05-14T23:45:28.104Z,12.30
2018-05-14T23:47:55.167Z,12.30
2018-05-14T23:50:21.802Z,12.30
2018-05-14T23:52:49.291Z,12.20
2018-05-14T23:55:15.960Z,12.10
2018-05-14T23:57:42.666Z,12.10
